Portada
METAR-TAF:

METAR-TAF

Aeroports :

Ushuaia, Argentina

latitud: 54-48S, longitud: 068-19W, altitud: 16 m

Observació

L'informe es va fer fa 21 minuts, a les 10:00 UTC
Vent calma
Temperatura -1°C
Humitat 86%
Pressió 1029 hPa
Visibilitat 10 km o més
sense núvols per sota de 1500 mi sense presència de cumulonimbus.

METAR: SAWH 201000Z 00000KT CAVOK M01/M03 Q1029

Hora: 07:21 (10:21 UTC)

Pronòstic

L'informe es va fer fa 5 hores i 21 minuts, a les 05:00 UTC
Pronòstic vàlid del 20 a les 06 UTC al 21 a les 06 UTC
Vent 2 kt amb direcció variable
Visibilitat 10 km o més
sense núvols per sota de 1500 mi sense presència de cumulonimbus.
Evolucionant progressivament
l' 20 a les 20 UTC al 20 a les 22 UTC
Visibilitat: 3000 m
boirina

TAF: SAWH 200500Z 2006/2106 VRB02KT CAVOK TX04/2018Z TNM02/2011Z BECMG 2020/2022 3000 BR NSC

Observacions i pronòstics meteorològics de més de 4000 aeroports (METAR i TAF).

Les estacions disponibles són els punts grocs i vermells al mapa.

Posi el ratolí al punt desitjat per veure el nom de l'estació.

Feu clic per veure les observacions i els pronòstics meteorològics.

Per canviar el mapa: feu clic els botons verds amb una creu de color negre per apropar; al botó verd amb un guió per allunyar la imatge; o en les fletxes verdes per a mapes adjacents.


METAR-TAF: